Hansa Limburg — A8IH6 — position and weather

sailwx.info

Track history (hours):
 
Tides and Currents Weather Stations Pressure Air Temp Water Temp Dewpoint Dewpoint Depression Visibility Wind Speed Wind Dir Waves Ship Positions

Hansa Limburg

Last reported at 2015-Feb-26 19:25 UTC. Time now 2015-Mar-03 16:37 UTC.
Position N 31°12' E 029°42'.

Length 175.5 m; beam 27.4 m; draft 10.9 m.

Type: Ship (hazmat cat A). MMSI: 636090980.

Date/timePositionNaut miles runAvg speedWind from/ knotsBaromVisibWave heightAir tempDewpointWater temp
2015-Feb-26 19:25N 31°12' E 029°42'  
2015-Feb-23 05:31N 36°28' E 015°03'1514.5
2015-Feb-23 04:31N 36°33' E 014°46'1414.7
2015-Feb-23 03:33N 36°40' E 014°31'1514.6
2015-Feb-23 02:33N 36°46' E 014°14'1414.5
2015-Feb-23 01:33N 36°52' E 013°57'1514.8
2015-Feb-23 00:33N 36°58' E 013°40'12214.6
2015-Feb-22 16:14N 37°56' E 011°26'10815.5
2015-Feb-22 09:18N 38°55' E 009°31'1115.2
2015-Feb-22 08:34N 39°01' E 009°19'1313.3
2015-Feb-22 07:33N 39°11' E 009°06'3 2.9
2015-Feb-22 06:33N 39°13' E 009°04'0 0.0
2015-Feb-22 05:33N 39°13' E 009°04'0 0.0
2015-Feb-22 04:33N 39°13' E 009°04'0 0.0
2015-Feb-22 03:33N 39°13' E 009°04'0 0.0
2015-Feb-22 02:33N 39°13' E 009°04'0 0.0
2015-Feb-22 01:33N 39°13' E 009°04'0 0.0
2015-Feb-22 00:33N 39°13' E 009°04'0 0.0
2015-Feb-21 23:33N 39°13' E 009°04'0 0.1
2015-Feb-21 22:33N 39°13' E 009°04'0 0.1
2015-Feb-21 21:33N 39°13' E 009°04'0 0.0
2015-Feb-21 20:33N 39°13' E 009°04'0 0.0
2015-Feb-21 19:33N 39°13' E 009°04'0 0.0
2015-Feb-21 18:33N 39°13' E 009°04'0 0.0
2015-Feb-21 17:33N 39°13' E 009°04'0 0.0
2015-Feb-21 16:33N 39°13' E 009°04'0 0.0
2015-Feb-21 15:32N 39°13' E 009°04'0 0.0
2015-Feb-21 14:33N 39°13' E 009°04'4 4.0
2015-Feb-21 13:33N 39°09' E 009°06'1313.1
2015-Feb-21 12:33N 39°02' E 009°20'1614.3
2015-Feb-21 11:25N 39°01' E 009°41'21716.6
2015-Feb-20 22:21N 40°24' E 014°02'1417.4
2015-Feb-20 21:33N 40°29' E 014°19'1816.9
2015-Feb-20 20:31N 40°36' E 014°40'4 0.1
2015-Feb-19 04:06N 40°35' E 014°35'5 8.8
2015-Feb-19 03:32N 40°34' E 014°29'10 8.8
2015-Feb-19 02:25N 40°31' E 014°16'6 6.4
2015-Feb-19 01:33N 40°34' E 014°10'9 9.5
2015-Feb-19 00:34N 40°43' E 014°14'8 7.4
2015-Feb-18 23:29N 40°50' E 014°17'0 0.1
2015-Feb-18 22:32N 40°50' E 014°17'0 0.0
2015-Feb-18 21:33N 40°50' E 014°17'0 0.0
2015-Feb-18 20:24N 40°50' E 014°17'0 0.0
2015-Feb-18 19:24N 40°50' E 014°17'0 0.0
2015-Feb-18 18:26N 40°50' E 014°17'0 0.0
2015-Feb-18 17:32N 40°50' E 014°17'0 0.0
2015-Feb-18 16:30N 40°50' E 014°17'0 0.0
2015-Feb-18 15:33N 40°50' E 014°17'0 0.0
2015-Feb-18 14:32N 40°50' E 014°17'0 0.0
2015-Feb-18 13:31N 40°50' E 014°17'0 0.0
2015-Feb-18 12:33N 40°50' E 014°17'6 5.9
2015-Feb-18 11:33N 40°45' E 014°13'1515.0
2015-Feb-18 10:33N 40°38' E 013°56'1414.3
2015-Feb-18 09:33N 40°44' E 013°39'1515.0
2015-Feb-18 08:33N 40°55' E 013°25'1515.1
2015-Feb-18 07:32N 41°03' E 013°08'233 7.8
2015-Feb-17 01:33N 43°51' E 009°28'1212.0
2015-Feb-17 00:33N 44°00' E 009°17'1211.7
2015-Feb-16 23:33N 44°08' E 009°05'1211.6
2015-Feb-16 22:33N 44°16' E 008°53'1010.4
2015-Feb-16 21:33N 44°24' E 008°44'2 2.1
2015-Feb-16 20:33N 44°25' E 008°47'0 0.0
2015-Feb-16 19:28N 44°25' E 008°47'  
Track history (hours):
 
Tides and Currents Weather Stations Pressure Air Temp Water Temp Dewpoint Dewpoint Depression Visibility Wind Speed Wind Dir Waves Ship Positions

Hansa Limburg

Last reported at 2015-Feb-26 19:25 UTC. Time now 2015-Mar-03 16:37 UTC.
Position N 31°12' E 029°42'.

Length 175.5 m; beam 27.4 m; draft 10.9 m.

Type: Ship (hazmat cat A). MMSI: 636090980.

Date/timePositionNaut miles runAvg speedWind from/ knotsBaromVisibWave heightAir tempDewpointWater temp
2015-Feb-26 19:25N 31°12' E 029°42'  
2015-Feb-23 05:31N 36°28' E 015°03'1514.5
2015-Feb-23 04:31N 36°33' E 014°46'1414.7
2015-Feb-23 03:33N 36°40' E 014°31'1514.6
2015-Feb-23 02:33N 36°46' E 014°14'1414.5
2015-Feb-23 01:33N 36°52' E 013°57'1514.8
2015-Feb-23 00:33N 36°58' E 013°40'12214.6
2015-Feb-22 16:14N 37°56' E 011°26'10815.5
2015-Feb-22 09:18N 38°55' E 009°31'1115.2
2015-Feb-22 08:34N 39°01' E 009°19'1313.3
2015-Feb-22 07:33N 39°11' E 009°06'3 2.9
2015-Feb-22 06:33N 39°13' E 009°04'0 0.0
2015-Feb-22 05:33N 39°13' E 009°04'0 0.0
2015-Feb-22 04:33N 39°13' E 009°04'0 0.0
2015-Feb-22 03:33N 39°13' E 009°04'0 0.0
2015-Feb-22 02:33N 39°13' E 009°04'0 0.0
2015-Feb-22 01:33N 39°13' E 009°04'0 0.0
2015-Feb-22 00:33N 39°13' E 009°04'0 0.0
2015-Feb-21 23:33N 39°13' E 009°04'0 0.1
2015-Feb-21 22:33N 39°13' E 009°04'0 0.1
2015-Feb-21 21:33N 39°13' E 009°04'0 0.0
2015-Feb-21 20:33N 39°13' E 009°04'0 0.0
2015-Feb-21 19:33N 39°13' E 009°04'0 0.0
2015-Feb-21 18:33N 39°13' E 009°04'0 0.0
2015-Feb-21 17:33N 39°13' E 009°04'0 0.0
2015-Feb-21 16:33N 39°13' E 009°04'0 0.0
2015-Feb-21 15:32N 39°13' E 009°04'0 0.0
2015-Feb-21 14:33N 39°13' E 009°04'4 4.0
2015-Feb-21 13:33N 39°09' E 009°06'1313.1
2015-Feb-21 12:33N 39°02' E 009°20'1614.3
2015-Feb-21 11:25N 39°01' E 009°41'21716.6
2015-Feb-20 22:21N 40°24' E 014°02'1417.4
2015-Feb-20 21:33N 40°29' E 014°19'1816.9
2015-Feb-20 20:31N 40°36' E 014°40'4 0.1
2015-Feb-19 04:06N 40°35' E 014°35'5 8.8
2015-Feb-19 03:32N 40°34' E 014°29'10 8.8
2015-Feb-19 02:25N 40°31' E 014°16'6 6.4
2015-Feb-19 01:33N 40°34' E 014°10'9 9.5
2015-Feb-19 00:34N 40°43' E 014°14'8 7.4
2015-Feb-18 23:29N 40°50' E 014°17'0 0.1
2015-Feb-18 22:32N 40°50' E 014°17'0 0.0
2015-Feb-18 21:33N 40°50' E 014°17'0 0.0
2015-Feb-18 20:24N 40°50' E 014°17'0 0.0
2015-Feb-18 19:24N 40°50' E 014°17'0 0.0
2015-Feb-18 18:26N 40°50' E 014°17'0 0.0
2015-Feb-18 17:32N 40°50' E 014°17'0 0.0
2015-Feb-18 16:30N 40°50' E 014°17'0 0.0
2015-Feb-18 15:33N 40°50' E 014°17'0 0.0
2015-Feb-18 14:32N 40°50' E 014°17'0 0.0
2015-Feb-18 13:31N 40°50' E 014°17'0 0.0
2015-Feb-18 12:33N 40°50' E 014°17'6 5.9
2015-Feb-18 11:33N 40°45' E 014°13'1515.0
2015-Feb-18 10:33N 40°38' E 013°56'1414.3
2015-Feb-18 09:33N 40°44' E 013°39'1515.0
2015-Feb-18 08:33N 40°55' E 013°25'1515.1
2015-Feb-18 07:32N 41°03' E 013°08'233 7.8
2015-Feb-17 01:33N 43°51' E 009°28'1212.0
2015-Feb-17 00:33N 44°00' E 009°17'1211.7
2015-Feb-16 23:33N 44°08' E 009°05'1211.6
2015-Feb-16 22:33N 44°16' E 008°53'1010.4
2015-Feb-16 21:33N 44°24' E 008°44'2 2.1
2015-Feb-16 20:33N 44°25' E 008°47'0 0.0
2015-Feb-16 19:28N 44°25' E 008°47'  

Dump ship's entire track history